Nearby METAR Reports

 

CWGT - Sisters Island (Auto)
Distance from station: NE 39km
Updated: 2017-10-21 21:00

 Wind from ESE
Wind: ESE 67 km/h, Gust: 83 km/h
Temperature: 10°C
Wind Chill: 5°C
Dew Point: 8°C
Humidity: 88%
2017/10/22 04:00 CWGT 220400Z AUTO 12036G45KT 10/08 RMK AO1 PK WND 12050/0317 SLP967 T00970078 53006
CWGB - Ballenas Island (Auto)
Distance from station: ENE 47km
Updated: 2017-10-21 21:00

 Wind from ESE
Wind: ESE 52 km/h, Gust: 61 km/h
Temperature: 9°C
Wind Chill: 4°C
Dew Point: 8°C
Humidity: 94%
2017/10/22 04:00 CWGB 220400Z AUTO 12028G33KT 09/08 RMK AO1 6016 PK WND 12037/0308 SLP970 T00920083 50010
CYQQ - CFB Comox
Distance from station: N 55km
Updated: 2017-10-21 21:00
Light rain, Mostly cloudy
Light rain, Mostly cloudy
 Wind from S
Wind: S 7 km/h
Temperature: 10°C
Wind Chill: 9°C
Dew Point: 9°C
Humidity: 94%
Barometer: 997 hPa
Summary: Light rain
Clouds: Mostly cloudy
Visibility: 16 km
Cloud details: Few Clouds 244 m
Partly cloudy 457 m
Mostly cloudy 762 m
Mostly cloudy 4572 m
2017/10/22 04:00 CYQQ 220400Z 17004KT 10SM -RA FEW008 SCT015 BKN025 BKN150 10/09 A2944 RMK SF2SC2SC2AC1 SLP971
 
CYPW - Powell River Airport
Distance from station: NNE 69km
Updated: 2017-10-21 19:00
NOT Current
Light rain, Mist, Overcast
Light rain, Mist, Overcast
 Wind from E
Wind: E 24 km/h, Gust: 50 km/h
Temperature: 8°C
Wind Chill: 4°C
Dew Point: 7°C
Humidity: 93%
Barometer: 996.3 hPa
Summary: Light rain, Mist
Clouds: Overcast
Visibility: 8 km
Cloud details: Few Clouds 91 m
Few Clouds 213 m
Mostly cloudy 457 m
Overcast 1372 m
2017/10/22 02:00 CYPW 220200Z 09013G27KT 060V120 5SM -RA BR FEW003 FEW007 BKN015 OVC045 08/07 A2942 RMK SF1SF2SC4SC2 SF TR LAST STFD OBS/NEXT221300UTC SLP967
CYCD - Nanaimo Airport
Distance from station: ESE 70km
Updated: 2017-10-21 21:00
Light rain, Mist, Overcast
Light rain, Mist, Overcast
 Wind from W
Wind: W 4 km/h
Temperature: 9°C
Dew Point: 9°C
Humidity: 100%
Barometer: 998.3 hPa
Summary: Light rain, Mist
Clouds: Overcast
Visibility: 8 km
Cloud details: Few Clouds 122 m
Mostly cloudy 244 m
Overcast 457 m
2017/10/22 04:00 CYCD 220400Z 28002KT 5SM -RA BR FEW004 BKN008 OVC015 09/09 A2948 RMK SF2SF3SC3 LAST OBS/NEXT 221300 UTC SLP983
CYAZ - Tofino Airport
Distance from station: WSW 73km
Updated: 2017-10-19 11:00
NOT Current
Nearby showers, Mostly cloudy
Nearby showers, Mostly cloudy
 Wind from E
Wind: E 7 km/h
Temperature: 10°C
Wind Chill: 9°C
Dew Point: 8°C
Humidity: 88%
Barometer: 996.3 hPa
Summary: Nearby Showers
Clouds: Mostly cloudy
Visibility: 6 km
Cloud details: Few Clouds 244 m
Mostly cloudy 1615 m
2017/10/19 18:00 CYAZ 191800Z 10004KT 090V260 4SM VCSH FEW008 BKN053 10/08 A2942 RMK CF2SC5 SLP964 DENSITY ALT 100FT
 
CWEL - Entrance Island (Auto)
Distance from station: E 73km
Updated: 2017-10-21 21:00

 Wind from SSE
Wind: SSE 43 km/h
Temperature: 9°C
Wind Chill: 4°C
Dew Point: 8°C
Humidity: 94%
2017/10/22 04:00 CWEL 220400Z AUTO 15023KT 09/08 RMK AO1 5013 PK WND 14029/0325 SLP978 T00930080 50014
CYBL - Campbell River Airport
Distance from station: NNW 88km
Updated: 2017-10-21 21:00
Light rain, Mist, Mostly cloudy
Light rain, Mist, Mostly cloudy
 Wind from NW
Wind: NW 6 km/h
Temperature: 7°C
Dew Point: 7°C
Humidity: 100%
Barometer: 997 hPa
Summary: Light rain, Mist
Clouds: Mostly cloudy
Visibility: 6 km
Cloud details: Few Clouds 183 m
Partly cloudy 549 m
Mostly cloudy 2134 m
2017/10/22 04:00 CYBL 220400Z 31003KT 250V050 4SM -RA BR FEW006 SCT018 BKN070 07/07 A2944 RMK SF2SC2AC3 LAST OBS/NEXT 221300UTC SLP973
CWKH - Malahat Highway (Auto)
Distance from station: SE 116km
Updated: 2017-10-21 21:00

 
Temperature: 10°C
Dew Point: 9°C
Humidity: 94%
2017/10/22 04:00 CWKH 220400Z AUTO 10/09 RMK AO1 4PAST HR 5002 SLP989 P0005 T01020092 50104
 
CYVR - Vancouver Intl Airport
Distance from station: E 118km
Updated: 2017-10-21 21:00
Overcast
Overcast
 Wind from E
Wind: E 22 km/h
Temperature: 8°C
Wind Chill: 4°C
Dew Point: 7°C
Humidity: 93%
Barometer: 999.7 hPa
Clouds: Overcast
Visibility: 24 km
Cloud details: Mostly cloudy 213 m
Overcast 366 m
2017/10/22 04:00 CYVR 220400Z 08012KT 15SM BKN007 OVC012 08/07 A2952 RMK ST5SC3 SLP998
CYYJ - Victoria Intl Airport
Distance from station: ESE 120km
Updated: 2017-10-21 21:00
Light rain, Mist, Overcast
Light rain, Mist, Overcast
 Wind from SE
Wind: SE 13 km/h
Temperature: 10°C
Wind Chill: 8°C
Dew Point: 10°C
Humidity: 100%
Barometer: 999.3 hPa
Summary: Light rain, Mist
Clouds: Overcast
Visibility: 8 km
Cloud details: Few Clouds 152 m
Overcast 1951 m
2017/10/22 04:00 CYYJ 220400Z 14007KT 110V180 5SM -RA BR FEW005 OVC064 10/10 A2951 RMK SF1SC7 SLP996
CWEB - Estevan Pt. (Auto)
Distance from station: W 129km
Updated: 2017-10-21 05:00
NOT Current

 Wind from ESE
Wind: ESE 26 km/h, Gust: 43 km/h
Temperature: 8°C
Wind Chill: 4°C
2017/10/21 12:00 CWEB 211200Z AUTO 12014G23KT 08/ RMK AO1 2PAST HR PRESRR 3058 PK WND 13032/1127 SLP033 P0001 T0080 50011
 
CWQK - Race Rocks (Auto)
Distance from station: SE 138km
Updated: 2017-10-21 21:00

 Wind from SW
Wind: SW 4 km/h
Temperature: 10°C
Dew Point: 10°C
Humidity: 100%
2017/10/22 04:00 CWQK 220400Z AUTO 23002KT 10/10 RMK AO1 SLP010 T00960096 52018
CWAE - Whistler
Distance from station: NE 167km
Updated: 2017-10-21 18:00
NOT Current
Snow, Overcast
Snow, Overcast
 Wind from calm
Wind: Calm
Temperature: 0°C
Dew Point: 0°C
Humidity: 100%
Barometer: 1001 hPa
Summary: Snow
Clouds: Overcast
Visibility: 2 km
Cloud details: Overcast 122 m
2017/10/22 01:00 CWAE 220100Z 00000KT 1SM SN VV004 00/M00 A2956 RMK SN8 LAST OBS/NEXT 211300UTC SLP025
CYZT - Port Hardy Airport
Distance from station: NW 244km
Updated: 2017-10-21 21:00
Mostly cloudy
Mostly cloudy
 Wind from S
Wind: S 6 km/h
Temperature: 8°C
Dew Point: 7°C
Humidity: 93%
Barometer: 993.9 hPa
Clouds: Mostly cloudy
Visibility: 24 km
Cloud details: Partly cloudy 671 m
Mostly cloudy 1219 m
Mostly cloudy 4267 m
2017/10/22 04:00 CYZT 220400Z 17003KT 130V260 15SM SCT022 BKN040 BKN140 08/07 A2935 RMK SC3SC3AC1 SLP942
 
CWRU - Solander Isl (Auto)
Distance from station: WNW 247km
Updated: 2017-10-21 20:00
NOT Current

 Wind from SSW
Wind: SSW 20 km/h
Temperature: 12°C
Dew Point: 9°C
Humidity: 82%
2017/10/22 03:00 CWRU 220300Z AUTO 20011KT 12/09 RMK AO1 PK WND 24017/0215 SLP928 T01160086 51018